Time;durP1;ratioP1;P1;durP2;ratioP2;P2;SDS_P1;SDS_P2;PMS_P1;PMS_P2;Temp;Humidity;BMP_temperature;BMP_pressure;BME280_temperature;BME280_humidity;BME280_pressure;Samples;Min_cycle;Max_cycle;Signal;HPM_P1;HPM_P2
2022/03/25 00:01:57;;;;;;;107.43;64.80;;;7.20;99.90;;;;;;5091199;28;20039;-77
2022/03/25 00:04:22;;;;;;;107.78;64.35;;;7.20;99.90;;;;;;5091112;28;20120;-77
2022/03/25 00:06:48;;;;;;;110.13;64.63;;;7.20;99.90;;;;;;5109757;28;20093;-77
2022/03/25 00:09:14;;;;;;;107.10;65.03;;;7.20;99.90;;;;;;5090777;28;20039;-77
2022/03/25 00:11:40;;;;;;;108.38;66.45;;;7.20;99.90;;;;;;5091666;28;20504;-77
2022/03/25 00:14:05;;;;;;;106.45;64.57;;;7.20;99.90;;;;;;5090994;28;20078;-77
2022/03/25 00:16:32;;;;;;;112.45;66.47;;;7.20;99.90;;;;;;5110238;28;20047;-77
2022/03/25 00:18:58;;;;;;;107.32;63.72;;;7.10;99.90;;;;;;5112823;28;20086;-77
2022/03/25 00:21:24;;;;;;;107.18;64.90;;;7.20;99.90;;;;;;5113123;28;20066;-77
2022/03/25 00:23:50;;;;;;;105.60;63.97;;;7.20;99.90;;;;;;5094411;28;20043;-77
2022/03/25 00:26:15;;;;;;;100.60;63.03;;;7.20;99.90;;;;;;5112986;28;20043;-77
2022/03/25 00:28:41;;;;;;;108.15;63.75;;;7.10;99.90;;;;;;5094790;28;20082;-78
2022/03/25 00:31:07;;;;;;;102.60;61.97;;;7.10;99.90;;;;;;5077478;28;20039;-78
2022/03/25 00:33:34;;;;;;;103.35;62.63;;;7.10;99.90;;;;;;5094488;28;20071;-77
2022/03/25 00:36:01;;;;;;;101.47;60.45;;;7.10;99.90;;;;;;5094897;28;20048;-78
2022/03/25 00:38:27;;;;;;;107.28;64.72;;;7.10;99.90;;;;;;5112861;28;20082;-77
2022/03/25 00:40:54;;;;;;;103.80;61.38;;;7.10;99.90;;;;;;5111812;28;20127;-78
2022/03/25 00:43:20;;;;;;;102.78;61.55;;;7.10;99.90;;;;;;5112570;28;20447;-78
2022/03/25 00:45:46;;;;;;;105.65;62.40;;;7.10;99.90;;;;;;5094710;28;20099;-78
2022/03/25 00:48:13;;;;;;;108.88;61.85;;;7.10;99.90;;;;;;5093898;28;20059;-77
2022/03/25 00:50:39;;;;;;;102.78;59.70;;;7.10;99.90;;;;;;5112452;28;20051;-77
2022/03/25 00:53:05;;;;;;;98.28;59.92;;;7.10;99.90;;;;;;5112145;28;20035;-77
2022/03/25 00:55:31;;;;;;;97.88;58.60;;;7.00;99.90;;;;;;5112247;28;20040;-78
2022/03/25 00:57:58;;;;;;;100.53;59.00;;;7.00;99.90;;;;;;5094269;28;20039;-77
2022/03/25 01:00:24;;;;;;;98.90;57.50;;;7.00;99.90;;;;;;5094157;28;20055;-78
2022/03/25 01:02:50;;;;;;;;;;;7.00;99.90;;;;;;5077754;28;20126;-78
2022/03/25 01:05:17;;;;;;;99.95;56.85;;;7.00;99.90;;;;;;5093522;28;20049;-77
2022/03/25 01:07:43;;;;;;;89.15;55.67;;;6.90;99.90;;;;;;5094174;28;20051;-77
2022/03/25 01:10:09;;;;;;;100.32;56.63;;;6.90;99.90;;;;;;5093953;28;20048;-77
2022/03/25 01:12:35;;;;;;;98.75;59.05;;;6.90;99.90;;;;;;5093351;28;20074;-78
2022/03/25 01:15:02;;;;;;;100.47;58.72;;;6.80;99.90;;;;;;5093929;28;20039;-78
2022/03/25 01:17:27;;;;;;;99.22;56.22;;;6.70;99.90;;;;;;5112142;28;20051;-78
2022/03/25 01:19:53;;;;;;;92.60;56.60;;;6.70;99.90;;;;;;5093415;28;20134;-78
2022/03/25 01:22:18;;;;;;;91.63;55.45;;;6.60;99.90;;;;;;5092952;28;20048;-78
2022/03/25 01:24:44;;;;;;;92.20;56.08;;;6.60;99.90;;;;;;5093753;28;20465;-78
2022/03/25 01:27:10;;;;;;;91.63;53.90;;;6.60;99.90;;;;;;5093359;28;20048;-78
2022/03/25 01:29:36;;;;;;;87.93;54.72;;;6.50;99.90;;;;;;5093550;28;20050;-77
2022/03/25 01:32:03;;;;;;;88.60;54.08;;;6.40;99.90;;;;;;5093111;28;20122;-78
2022/03/25 01:34:29;;;;;;;88.45;52.88;;;6.40;99.90;;;;;;5092888;28;20050;-77
2022/03/25 01:36:55;;;;;;;85.63;52.45;;;6.30;99.90;;;;;;5093411;28;20044;-78
2022/03/25 01:39:20;;;;;;;92.32;52.90;;;6.30;99.90;;;;;;5092905;28;20047;-78
2022/03/25 01:41:47;;;;;;;;;;;6.20;99.90;;;;;;5093886;28;20053;-78
2022/03/25 01:44:14;;;;;;;82.88;48.15;;;6.20;99.90;;;;;;5092860;28;20021;-78
2022/03/25 01:46:39;;;;;;;86.43;50.03;;;6.10;99.90;;;;;;5093652;28;20363;-78
2022/03/25 01:49:05;;;;;;;82.70;50.10;;;6.10;99.90;;;;;;5110932;28;20047;-78
2022/03/25 01:51:32;;;;;;;;;;;6.00;99.90;;;;;;5093495;28;20367;-78
2022/03/25 01:54:07;;;;;;;;;;;6.00;99.90;;;;;;5111976;28;19919;-78
2022/03/25 01:56:34;;;;;;;;;;;6.00;99.90;;;;;;5093525;28;19962;-78
2022/03/25 01:58:59;;;;;;;;;;;5.90;99.90;;;;;;5076008;28;19965;-78
2022/03/25 02:01:25;;;;;;;;;;;5.90;99.90;;;;;;5093527;28;20441;-78
2022/03/25 02:03:51;;;;;;;;;;;5.90;99.90;;;;;;5076561;28;20374;-78
2022/03/25 02:06:17;;;;;;;73.55;45.40;;;5.80;99.90;;;;;;5092992;28;19924;-78
2022/03/25 02:08:43;;;;;;;80.07;47.28;;;5.80;99.90;;;;;;5093218;28;20071;-78
2022/03/25 02:11:09;;;;;;;80.80;47.80;;;5.80;99.90;;;;;;5110357;28;20043;-78
2022/03/25 02:13:35;;;;;;;89.78;62.65;;;5.70;99.90;;;;;;5091458;28;20751;-78
2022/03/25 02:16:01;;;;;;;77.70;49.35;;;5.70;99.90;;;;;;5092358;28;20048;-78
2022/03/25 02:18:26;;;;;;;85.00;49.80;;;5.70;99.90;;;;;;5109623;28;20043;-78
2022/03/25 02:20:52;;;;;;;84.10;48.83;;;5.70;99.90;;;;;;5091559;28;20056;-78
2022/03/25 02:23:18;;;;;;;80.07;48.00;;;5.70;99.90;;;;;;5091580;28;20047;-78
2022/03/25 02:25:48;;;;;;;81.00;48.88;;;5.60;99.90;;;;;;5109782;28;20042;-78
2022/03/25 02:28:14;;;;;;;78.93;48.35;;;5.60;99.90;;;;;;5091474;28;20105;-78
2022/03/25 02:30:39;;;;;;;75.63;45.65;;;5.60;99.90;;;;;;5109821;28;20039;-78
2022/03/25 02:33:07;;;;;;;76.15;45.85;;;5.50;99.90;;;;;;5091055;28;20078;-78
2022/03/25 02:35:45;;;;;;;80.32;48.92;;;5.50;99.90;;;;;;5091277;28;20097;-78
2022/03/25 02:38:13;;;;;;;76.22;45.35;;;5.50;99.90;;;;;;5114521;27;20061;-78
2022/03/25 02:40:40;;;;;;;75.55;44.88;;;5.50;99.90;;;;;;5123863;27;20051;-78
2022/03/25 02:43:07;;;;;;;76.68;46.63;;;5.50;99.90;;;;;;5113494;27;20043;-77
2022/03/25 02:45:32;;;;;;;78.43;45.00;;;5.40;99.90;;;;;;5128822;27;20501;-77
2022/03/25 02:48:00;;;;;;;77.35;46.10;;;5.40;99.90;;;;;;5125474;27;20092;-77
2022/03/25 02:50:26;;;;;;;75.93;45.53;;;5.30;99.90;;;;;;5091072;28;20040;-77
2022/03/25 02:52:53;;;;;;;76.07;46.25;;;5.30;99.90;;;;;;5091163;28;20427;-78
2022/03/25 02:55:19;;;;;;;78.05;45.58;;;5.30;99.90;;;;;;5108723;28;20060;-77
2022/03/25 02:57:44;;;;;;;77.70;45.60;;;5.30;99.90;;;;;;5105243;27;20404;-77
2022/03/25 03:00:10;;;;;;;73.93;44.30;;;5.30;99.90;;;;;;5111409;27;20493;-78
2022/03/25 03:02:37;;;;;;;76.93;45.65;;;5.20;99.90;;;;;;5111845;27;20493;-77
2022/03/25 03:05:06;;;;;;;72.28;43.60;;;5.20;99.90;;;;;;5129533;27;20046;-77
2022/03/25 03:07:32;;;;;;;72.35;42.85;;;5.20;99.90;;;;;;5111222;27;20104;-78
2022/03/25 03:09:58;;;;;;;;;;;5.20;99.90;;;;;;5111742;27;20035;-78
2022/03/25 03:12:25;;;;;;;68.97;41.70;;;5.20;99.90;;;;;;5094350;27;20369;-78
2022/03/25 03:14:51;;;;;;;73.47;43.83;;;5.10;99.90;;;;;;5111205;27;20154;-78
2022/03/25 03:17:16;;;;;;;71.55;42.05;;;5.10;99.90;;;;;;5129289;27;20054;-78
2022/03/25 03:19:42;;;;;;;73.30;44.10;;;5.10;99.90;;;;;;5111108;27;20453;-77
2022/03/25 03:22:07;;;;;;;70.53;40.35;;;5.10;99.90;;;;;;5110461;27;20442;-78
2022/03/25 03:24:33;;;;;;;72.75;43.35;;;5.00;99.90;;;;;;5110878;28;20562;-77
2022/03/25 03:26:59;;;;;;;;;;;5.00;99.90;;;;;;5111556;27;20043;-78
2022/03/25 03:29:25;;;;;;;68.50;40.20;;;5.00;99.90;;;;;;5111250;28;20722;-78
2022/03/25 03:31:51;;;;;;;69.25;41.65;;;4.90;99.90;;;;;;5110903;27;20081;-78
2022/03/25 03:34:17;;;;;;;67.70;38.88;;;4.90;99.90;;;;;;5129170;27;20665;-77
2022/03/25 03:36:42;;;;;;;66.50;39.63;;;4.90;99.90;;;;;;5111039;28;20046;-77
2022/03/25 03:39:08;;;;;;;63.60;39.45;;;4.90;99.90;;;;;;5128612;28;20073;-78
2022/03/25 03:41:34;;;;;;;60.97;38.22;;;4.90;99.90;;;;;;5129086;28;20077;-78
2022/03/25 03:44:00;;;;;;;60.00;36.33;;;4.80;99.90;;;;;;5128964;28;20043;-77
2022/03/25 03:46:26;;;;;;;59.72;36.58;;;4.80;99.90;;;;;;5111029;28;20061;-77
2022/03/25 03:48:51;;;;;;;58.75;36.28;;;4.70;99.90;;;;;;5128727;28;20521;-78
2022/03/25 03:51:17;;;;;;;59.15;35.95;;;4.70;99.90;;;;;;5110603;27;20042;-78
2022/03/25 03:53:43;;;;;;;58.15;34.78;;;4.70;99.90;;;;;;5115057;27;20130;-78
2022/03/25 03:56:08;;;;;;;57.08;34.88;;;4.70;99.90;;;;;;5114352;27;20067;-78
2022/03/25 03:58:34;;;;;;;54.80;31.70;;;4.70;99.90;;;;;;5115396;27;20054;-78
2022/03/25 04:00:59;;;;;;;55.65;33.83;;;4.60;99.90;;;;;;5134151;27;20043;-78
2022/03/25 04:03:25;;;;;;;52.05;33.35;;;4.60;99.90;;;;;;5133800;27;20050;-77
2022/03/25 04:05:51;;;;;;;53.67;32.13;;;4.50;99.90;;;;;;5115601;27;20047;-77
2022/03/25 04:08:16;;;;;;;51.85;32.42;;;4.50;99.90;;;;;;5115835;27;20055;-77
2022/03/25 04:10:42;;;;;;;55.17;33.38;;;4.50;99.90;;;;;;5134314;27;20055;-78
2022/03/25 04:13:07;;;;;;;51.70;31.13;;;4.50;99.90;;;;;;5133480;27;20042;-78
2022/03/25 04:15:34;;;;;;;58.30;43.03;;;4.50;99.90;;;;;;5114233;27;20402;-77
2022/03/25 04:18:00;;;;;;;59.42;43.85;;;4.50;99.90;;;;;;5113472;27;20402;-78
2022/03/25 04:20:26;;;;;;;49.22;32.85;;;4.40;99.90;;;;;;5115130;27;20043;-77
2022/03/25 04:22:52;;;;;;;47.97;30.90;;;4.40;99.90;;;;;;5098483;27;20489;-78
2022/03/25 04:25:18;;;;;;;46.88;31.05;;;4.40;99.90;;;;;;5133538;27;20049;-78
2022/03/25 04:27:55;;;;;;;46.35;30.67;;;4.30;99.90;;;;;;5133382;27;20058;-77
2022/03/25 04:30:25;;;;;;;46.70;29.42;;;4.40;99.90;;;;;;5133445;27;20043;-77
2022/03/25 04:32:51;;;;;;;48.88;28.42;;;4.30;99.90;;;;;;5133511;27;20123;-77
2022/03/25 04:35:17;;;;;;;43.75;28.45;;;4.30;99.90;;;;;;5114601;27;20073;-78
2022/03/25 04:37:43;;;;;;;45.40;29.60;;;4.30;99.90;;;;;;5115412;27;20050;-77
2022/03/25 04:40:17;;;;;;;47.60;29.15;;;4.30;99.90;;;;;;5114790;27;20055;-78
2022/03/25 04:42:47;;;;;;;47.92;30.98;;;4.30;99.90;;;;;;5114801;27;20447;-78
2022/03/25 04:45:14;;;;;;;50.88;31.13;;;4.20;99.90;;;;;;5114699;27;20481;-78
2022/03/25 04:47:40;;;;;;;49.58;30.42;;;4.30;99.90;;;;;;5130246;27;20093;-78
2022/03/25 04:50:06;;;;;;;;;;;4.30;99.90;;;;;;5094533;28;20047;-77
2022/03/25 04:52:32;;;;;;;48.88;29.25;;;4.30;99.90;;;;;;5094136;28;20289;-78
2022/03/25 04:54:58;;;;;;;49.20;29.88;;;4.30;99.90;;;;;;5112530;28;20090;-78
2022/03/25 04:57:24;;;;;;;51.88;31.90;;;4.30;99.90;;;;;;5094494;28;20083;-78
2022/03/25 04:59:50;;;;;;;55.42;32.42;;;4.20;99.90;;;;;;5112409;28;20122;-77
2022/03/25 05:02:15;;;;;;;53.10;31.73;;;4.20;99.90;;;;;;5111508;28;20143;-78
2022/03/25 05:04:41;;;;;;;53.63;32.92;;;4.20;99.90;;;;;;5112200;28;20054;-78
2022/03/25 05:07:12;;;;;;;55.33;33.08;;;4.20;99.90;;;;;;5094126;28;20128;-78
2022/03/25 05:09:38;;;;;;;51.15;29.77;;;4.30;99.90;;;;;;5094093;28;20044;-78
2022/03/25 05:12:04;;;;;;;50.90;31.73;;;4.30;99.90;;;;;;5111784;28;20505;-78
2022/03/25 05:14:30;;;;;;;52.65;32.15;;;4.30;99.90;;;;;;5112256;28;20078;-77
2022/03/25 05:16:55;;;;;;;53.33;32.22;;;4.30;99.90;;;;;;5093590;28;20067;-78
2022/03/25 05:19:22;;;;;;;53.80;31.58;;;4.30;99.90;;;;;;5112039;28;20054;-78
2022/03/25 05:21:48;;;;;;;51.08;30.77;;;4.30;99.90;;;;;;5094160;28;20482;-78
2022/03/25 05:24:13;;;;;;;58.80;34.45;;;4.30;99.90;;;;;;5111387;28;20116;-78
2022/03/25 05:26:39;;;;;;;56.63;33.08;;;4.30;99.90;;;;;;5093595;28;20485;-77
2022/03/25 05:29:05;;;;;;;58.22;33.67;;;4.30;99.90;;;;;;5111342;28;20039;-78
2022/03/25 05:31:31;;;;;;;52.05;32.40;;;4.40;99.90;;;;;;5112014;28;20468;-78
2022/03/25 05:33:57;;;;;;;54.50;32.17;;;4.40;99.90;;;;;;5076560;28;20050;-78
2022/03/25 05:36:22;;;;;;;66.53;43.88;;;4.40;99.90;;;;;;5110287;28;20404;-78
2022/03/25 05:38:48;;;;;;;58.20;36.08;;;4.40;99.90;;;;;;5093563;28;20036;-77
2022/03/25 05:41:14;;;;;;;59.00;33.58;;;4.30;99.90;;;;;;5092614;28;20414;-78
2022/03/25 05:43:40;;;;;;;53.63;32.15;;;4.30;99.90;;;;;;5093231;28;20054;-78
2022/03/25 05:46:05;;;;;;;59.85;34.80;;;4.30;99.90;;;;;;5111418;28;20058;-78
2022/03/25 05:48:31;;;;;;;58.25;33.70;;;4.30;99.90;;;;;;5122479;27;20040;-78
2022/03/25 05:50:57;;;;;;;60.70;34.72;;;4.30;99.90;;;;;;5131986;27;20100;-78
2022/03/25 05:53:23;;;;;;;57.15;34.00;;;4.30;99.90;;;;;;5113021;27;20371;-78
2022/03/25 05:55:49;;;;;;;60.60;33.38;;;4.20;99.90;;;;;;5113242;27;20459;-78
2022/03/25 05:58:14;;;;;;;59.40;35.00;;;4.30;99.90;;;;;;5112943;27;20105;-78
2022/03/25 06:00:40;;;;;;;56.25;33.20;;;4.20;99.90;;;;;;5131346;27;20038;-78
2022/03/25 06:03:06;;;;;;;62.88;35.50;;;4.20;99.90;;;;;;5112998;27;20424;-78
2022/03/25 06:05:32;;;;;;;59.85;34.63;;;4.30;99.90;;;;;;5131789;27;20043;-78
2022/03/25 06:07:57;;;;;;;62.03;35.55;;;4.20;99.90;;;;;;5095679;27;20043;-77
2022/03/25 06:10:23;;;;;;;67.95;38.17;;;4.30;99.90;;;;;;5096409;27;20102;-78
2022/03/25 06:12:49;;;;;;;66.40;36.65;;;4.30;99.90;;;;;;5131548;27;20043;-78
2022/03/25 06:15:15;;;;;;;59.88;35.65;;;4.40;99.90;;;;;;5112064;27;20047;-77
2022/03/25 06:17:53;;;;;;;60.17;36.28;;;4.40;99.90;;;;;;5131607;27;20075;-78
2022/03/25 06:20:23;;;;;;;63.28;36.30;;;4.40;99.90;;;;;;5130996;27;20120;-78
2022/03/25 06:22:49;;;;;;;64.70;37.30;;;4.50;99.90;;;;;;5131137;27;20050;-78
2022/03/25 06:25:16;;;;;;;60.65;36.55;;;4.60;99.90;;;;;;5112439;27;20574;-77
2022/03/25 06:27:50;;;;;;;58.72;36.13;;;4.60;99.90;;;;;;5131514;27;20039;-78
2022/03/25 06:30:16;;;;;;;68.10;38.28;;;4.60;99.90;;;;;;5131138;27;20106;-78
2022/03/25 06:32:42;;;;;;;63.00;37.47;;;4.70;99.90;;;;;;5113003;27;20050;-78
2022/03/25 06:35:08;;;;;;;62.20;36.70;;;4.70;99.90;;;;;;5112438;27;20053;-77
2022/03/25 06:37:35;;;;;;;70.00;37.40;;;4.80;99.90;;;;;;5112336;27;20051;-78
2022/03/25 06:40:02;;;;;;;63.38;36.28;;;4.80;99.90;;;;;;5130861;27;20462;-78
2022/03/25 06:42:27;;;;;;;73.40;49.77;;;4.90;99.90;;;;;;5111006;27;20410;-78
2022/03/25 06:44:53;;;;;;;71.67;50.23;;;5.00;99.90;;;;;;5111238;27;20419;-78
2022/03/25 06:47:18;;;;;;;66.93;39.75;;;5.10;99.90;;;;;;5130260;27;20043;-77
2022/03/25 06:49:44;;;;;;;61.53;36.20;;;5.20;99.90;;;;;;5110327;28;20046;-77
2022/03/25 06:52:11;;;;;;;63.92;36.25;;;5.30;99.90;;;;;;5108988;28;20048;-77
2022/03/25 06:54:37;;;;;;;59.88;35.55;;;5.30;99.90;;;;;;5109165;28;20092;-77
2022/03/25 06:57:03;;;;;;;59.58;35.63;;;5.50;99.90;;;;;;5108199;28;20048;-78
2022/03/25 06:59:29;;;;;;;60.85;34.63;;;5.50;99.90;;;;;;5109275;28;20732;-78
2022/03/25 07:01:55;;;;;;;57.88;33.17;;;5.70;99.90;;;;;;5090341;28;20048;-78
2022/03/25 07:04:21;;;;;;;57.00;33.30;;;5.80;99.90;;;;;;5109244;28;20080;-78
2022/03/25 07:06:49;;;;;;;51.13;31.70;;;5.90;99.90;;;;;;5109855;28;20100;-77
2022/03/25 07:09:15;;;;;;;51.22;30.00;;;6.10;99.90;;;;;;5109982;28;20536;-78
2022/03/25 07:11:41;;;;;;;53.83;39.40;;;6.20;99.90;;;;;;5090235;28;20453;-78
2022/03/25 07:14:06;;;;;;;49.03;38.03;;;6.30;99.90;;;;;;5090132;28;20392;-78
2022/03/25 07:16:32;;;;;;;46.40;36.95;;;6.50;99.90;;;;;;5108661;28;20388;-78
2022/03/25 07:18:59;;;;;;;44.63;35.33;;;6.60;99.90;;;;;;5108230;28;20401;-77
2022/03/25 07:21:25;;;;;;;46.10;35.67;;;6.70;99.90;;;;;;5108123;28;20479;-77
2022/03/25 07:23:51;;;;;;;46.93;34.97;;;6.90;99.90;;;;;;5090317;28;20400;-77
2022/03/25 07:26:17;;;;;;;42.38;32.72;;;7.00;99.90;;;;;;5107578;28;20826;-77
2022/03/25 07:28:43;;;;;;;40.63;31.52;;;7.10;99.90;;;;;;5108286;28;20475;-78
2022/03/25 07:31:09;;;;;;;40.22;31.60;;;7.20;99.90;;;;;;5108356;28;20388;-77
2022/03/25 07:33:36;;;;;;;39.97;31.50;;;7.30;99.90;;;;;;5073478;28;20489;-77
2022/03/25 07:36:01;;;;;;;37.97;29.88;;;7.40;99.90;;;;;;5108070;28;20450;-78
2022/03/25 07:38:28;;;;;;;39.40;31.30;;;7.50;99.90;;;;;;5089535;28;20910;-77
2022/03/25 07:40:55;;;;;;;40.00;29.97;;;7.60;99.90;;;;;;5107907;28;20404;-77
2022/03/25 07:43:21;;;;;;;36.15;29.20;;;7.70;99.90;;;;;;5090083;28;20415;-77
2022/03/25 07:45:46;;;;;;;36.10;28.23;;;7.70;99.90;;;;;;5107806;28;20416;-77
2022/03/25 07:48:12;;;;;;;36.23;28.37;;;7.80;99.90;;;;;;5114812;28;20386;-77
2022/03/25 07:50:38;;;;;;;35.55;27.67;;;7.90;99.90;;;;;;5109700;28;20484;-77
2022/03/25 07:53:03;;;;;;;34.63;27.60;;;8.00;99.90;;;;;;5127294;28;20398;-77
2022/03/25 07:55:29;;;;;;;35.53;27.57;;;8.10;99.90;;;;;;5127768;28;20387;-77
2022/03/25 07:57:56;;;;;;;36.95;28.90;;;8.20;99.90;;;;;;5127748;28;20493;-77
2022/03/25 08:00:23;;;;;;;33.88;27.05;;;8.20;99.90;;;;;;5109269;28;20920;-78
2022/03/25 08:02:54;;;;;;;33.80;27.90;;;8.30;99.90;;;;;;5127807;28;20398;-78
2022/03/25 08:05:20;;;;;;;31.60;25.27;;;8.40;99.90;;;;;;5127026;28;20582;-78
2022/03/25 08:07:53;;;;;;;32.88;25.63;;;8.50;99.90;;;;;;5109665;28;20863;-78
2022/03/25 08:10:21;;;;;;;31.33;25.17;;;8.60;99.90;;;;;;5108976;28;20533;-78
2022/03/25 08:12:47;;;;;;;32.53;25.43;;;8.60;99.90;;;;;;5127834;28;20447;-78
2022/03/25 08:15:13;;;;;;;31.87;23.67;;;8.70;99.90;;;;;;5109225;28;20907;-78
2022/03/25 08:17:55;;;;;;;30.53;23.10;;;8.70;99.90;;;;;;5108944;28;20411;-78
2022/03/25 08:20:28;;;;;;;28.48;22.42;;;8.70;99.90;;;;;;5109071;28;20895;-78
2022/03/25 08:22:58;;;;;;;30.13;24.20;;;8.80;99.90;;;;;;5127678;28;20406;-77
2022/03/25 08:28:10;;;;;;;29.13;24.48;;;9.00;99.90;;;;;;5126956;28;20482;-79
2022/03/25 08:30:36;;;;;;;31.85;26.30;;;9.10;99.90;;;;;;5109152;28;20517;-79
2022/03/25 08:33:03;;;;;;;32.20;26.10;;;9.10;99.90;;;;;;5108450;28;20399;-78
2022/03/25 08:35:29;;;;;;;34.30;27.52;;;9.10;99.90;;;;;;5127013;28;20403;-78
2022/03/25 08:37:55;;;;;;;33.30;27.38;;;9.10;99.90;;;;;;5128612;27;20904;-78
2022/03/25 08:40:22;;;;;;;32.97;27.10;;;9.20;99.90;;;;;;5130461;27;20413;-79
2022/03/25 08:42:47;;;;;;;33.60;27.52;;;9.20;99.90;;;;;;5130869;27;20431;-79
2022/03/25 08:45:15;;;;;;;33.72;27.33;;;9.20;99.90;;;;;;5129495;27;20461;-78
2022/03/25 08:47:41;;;;;;;35.25;27.73;;;9.20;99.90;;;;;;5112622;27;21211;-78
2022/03/25 08:50:09;;;;;;;33.20;27.50;;;9.40;99.90;;;;;;5130487;27;20451;-78
2022/03/25 08:52:35;;;;;;;33.63;27.45;;;9.40;99.90;;;;;;5112328;27;20394;-78
2022/03/25 08:55:02;;;;;;;34.60;27.08;;;9.50;99.90;;;;;;5130569;27;20403;-78
2022/03/25 08:57:27;;;;;;;33.42;27.60;;;9.60;99.90;;;;;;5112473;27;20482;-78
2022/03/25 08:59:53;;;;;;;36.42;28.17;;;9.70;99.90;;;;;;5130772;27;21053;-77
2022/03/25 09:02:18;;;;;;;34.93;29.30;;;9.80;99.90;;;;;;5130693;27;20904;-80
2022/03/25 09:04:46;;;;;;;34.00;28.42;;;9.90;99.90;;;;;;5112112;27;20503;-78
2022/03/25 09:07:12;;;;;;;32.72;27.50;;;10.00;99.90;;;;;;5112455;27;20395;-79
2022/03/25 09:09:38;;;;;;;35.95;28.85;;;10.00;99.90;;;;;;5131224;27;20837;-78
2022/03/25 09:12:04;;;;;;;33.63;26.80;;;10.10;99.90;;;;;;5112389;27;20405;-79
2022/03/25 09:14:30;;;;;;;34.28;27.13;;;10.20;99.90;;;;;;5131590;27;20395;-79
2022/03/25 09:16:56;;;;;;;30.90;25.60;;;10.30;99.90;;;;;;5112874;27;20398;-78
2022/03/25 09:19:21;;;;;;;31.13;25.50;;;10.40;99.90;;;;;;5131390;27;20410;-78
2022/03/25 09:21:47;;;;;;;33.70;26.58;;;10.50;99.90;;;;;;5131130;27;20461;-79
2022/03/25 09:24:12;;;;;;;31.57;26.30;;;10.80;99.90;;;;;;5112478;27;20430;-79
2022/03/25 09:26:38;;;;;;;31.67;25.45;;;11.60;99.90;;;;;;5130971;27;20482;-79
2022/03/25 09:29:04;;;;;;;30.03;25.57;;;12.50;99.90;;;;;;5112465;27;20418;-77
2022/03/25 09:31:30;;;;;;;31.85;27.02;;;13.30;99.90;;;;;;5131290;27;20771;-77
2022/03/25 09:35:08;;;;;;;29.03;25.87;;;14.10;99.90;;;;;;5095807;27;20490;-77
2022/03/25 09:36:41;;;;;;;32.28;27.40;;;14.80;99.90;;;;;;5112638;27;20391;-77
2022/03/25 09:39:07;;;;;;;29.60;26.33;;;15.40;98.30;;;;;;5112317;27;20422;-78
2022/03/25 09:41:34;;;;;;;31.02;26.17;;;15.80;96.70;;;;;;5130330;27;20397;-77
2022/03/25 09:44:00;;;;;;;28.83;25.50;;;16.20;96.40;;;;;;5130302;27;20399;-78
2022/03/25 09:46:26;;;;;;;30.60;25.63;;;16.60;94.70;;;;;;5095111;27;20769;-78
2022/03/25 09:48:51;;;;;;;28.43;25.40;;;17.00;94.20;;;;;;5098817;28;20456;-77
2022/03/25 09:51:17;;;;;;;29.70;24.45;;;17.40;92.60;;;;;;5091735;28;20408;-78
2022/03/25 09:53:44;;;;;;;26.35;21.77;;;17.70;91.10;;;;;;5092222;28;20400;-78
2022/03/25 09:56:09;;;;;;;24.93;21.07;;;18.00;87.70;;;;;;5109747;28;20392;-78
2022/03/25 09:58:36;;;;;;;26.50;21.17;;;18.30;84.20;;;;;;5091861;28;20746;-78
2022/03/25 10:01:02;;;;;;;22.45;18.65;;;18.40;77.90;;;;;;5092003;28;20411;-78
2022/03/25 10:03:36;;;;;;;22.40;18.10;;;18.50;75.20;;;;;;5110284;28;20439;-78
2022/03/25 10:06:02;;;;;;;23.13;18.63;;;18.80;73.40;;;;;;5091246;28;20424;-78
2022/03/25 10:08:29;;;;;;;23.02;18.90;;;19.00;73.00;;;;;;5091645;28;20404;-78
2022/03/25 10:10:54;;;;;;;22.30;16.83;;;19.10;70.40;;;;;;5110122;28;20407;-78
2022/03/25 10:13:20;;;;;;;;;;;19.40;69.40;;;;;;5111507;28;20044;-78
2022/03/25 10:15:45;;;;;;;;;;;19.60;64.60;;;;;;5111529;28;19919;-79
2022/03/25 10:18:11;;;;;;;;;;;19.60;66.20;;;;;;5111540;28;20014;-79
2022/03/25 10:20:38;;;;;;;;;;;19.90;64.20;;;;;;5111196;28;19926;-78
2022/03/25 10:23:04;;;;;;;;;;;20.00;61.40;;;;;;5093281;28;19926;-78
2022/03/25 10:25:49;;;;;;;;;;;20.00;60.90;;;;;;5111416;28;20431;-78
2022/03/25 10:28:18;;;;;;;;;;;20.20;59.10;;;;;;5092814;28;19924;-79
2022/03/25 10:30:44;;;;;;;;;;;20.30;59.70;;;;;;5093094;28;20068;-79
2022/03/25 10:33:19;;;;;;;;;;;20.50;58.10;;;;;;5111401;28;20382;-79
2022/03/25 10:35:58;;;;;;;;;;;20.60;58.90;;;;;;5111472;28;19931;-79
2022/03/25 10:38:24;;;;;;;;;;;20.80;59.30;;;;;;5110852;28;19919;-79
2022/03/25 10:40:56;;;;;;;;;;;20.90;58.20;;;;;;5110894;28;20388;-79
2022/03/25 10:43:22;;;;;;;;;;;20.80;55.50;;;;;;5092493;28;20306;-79
2022/03/25 10:45:48;;;;;;;;;;;20.60;55.20;;;;;;5092532;28;19965;-79
2022/03/25 10:48:19;;;;;;;;;;;20.60;55.60;;;;;;5118372;27;20676;-79
2022/03/25 10:50:54;;;;;;;;;;;20.70;56.90;;;;;;5113179;27;19924;-79
2022/03/25 10:53:23;;;;;;;;;;;20.80;57.00;;;;;;5112682;27;19923;-79
2022/03/25 10:55:54;;;;;;;;;;;21.00;57.70;;;;;;5131355;27;19927;-79
2022/03/25 10:58:19;;;;;;;;;;;21.30;56.90;;;;;;5112052;27;20546;-79
2022/03/25 11:00:45;;;;;;;;;;;21.60;57.50;;;;;;5112821;27;19931;-79
2022/03/25 11:03:14;;;;;;;;;;;21.80;55.80;;;;;;5096110;27;20408;-79
2022/03/25 11:05:39;;;;;;;;;;;21.80;55.50;;;;;;5112716;27;19930;-79
2022/03/25 11:08:05;;;;;;;;;;;21.90;54.00;;;;;;5130470;27;19923;-79
2022/03/25 11:10:32;;;;;;;;;;;21.80;52.30;;;;;;5131300;27;19923;-79
2022/03/25 11:12:58;;;;;;;;;;;21.80;52.50;;;;;;5129957;27;20576;-79
2022/03/25 11:15:24;;;;;;;;;;;21.90;50.50;;;;;;5129862;27;19927;-79
2022/03/25 11:17:49;;;;;;;;;;;21.80;52.00;;;;;;5111222;27;19968;-79
2022/03/25 11:20:16;;;;;;;;;;;21.80;51.40;;;;;;5129831;27;19927;-79
2022/03/25 11:22:48;;;;;;;;;;;21.70;49.70;;;;;;5129935;27;19931;-79
2022/03/25 11:25:15;;;;;;;;;;;21.60;47.80;;;;;;5129474;27;19934;-78
2022/03/25 11:27:44;;;;;;;;;;;21.60;48.00;;;;;;5129598;27;19927;-78
2022/03/25 11:30:13;;;;;;;;;;;21.70;48.60;;;;;;5129655;27;20005;-78
2022/03/25 11:32:48;;;;;;;;;;;21.70;47.80;;;;;;5111523;28;20003;-78
2022/03/25 11:35:18;;;;;;;;;;;21.80;46.00;;;;;;5128977;27;19927;-78
2022/03/25 11:37:44;;;;;;;;;;;21.90;47.60;;;;;;5111206;27;19924;-78
2022/03/25 11:40:12;;;;;;;;;;;22.10;44.50;;;;;;5129336;27;19930;-78
2022/03/25 11:42:41;;;;;;;;;;;22.10;45.80;;;;;;5129403;28;19931;-79
2022/03/25 11:45:25;;;;;;;;;;;22.20;45.90;;;;;;5111099;28;20288;-78
2022/03/25 11:47:59;;;;;;;;;;;22.20;45.50;;;;;;5130228;28;19930;-78
2022/03/25 11:50:26;;;;;;;;;;;22.10;46.70;;;;;;5111493;28;19931;-78
2022/03/25 11:52:52;;;;;;;;;;;22.20;44.70;;;;;;5130129;28;20006;-78
2022/03/25 11:55:17;;;;;;;;;;;22.20;43.30;;;;;;5129158;28;20506;-78
2022/03/25 11:57:44;;;;;;;;;;;22.30;44.70;;;;;;5129657;28;19924;-78
2022/03/25 12:00:21;;;;;;;;;;;22.40;43.10;;;;;;5129699;28;19965;-78
2022/03/25 12:02:59;;;;;;;;;;;22.20;41.70;;;;;;5111625;28;20301;-78
2022/03/25 12:05:24;;;;;;;;;;;22.00;45.30;;;;;;5129582;28;19923;-78
2022/03/25 12:08:15;;;;;;;;;;;22.00;46.50;;;;;;5129261;28;20452;-78
2022/03/25 12:10:45;;;;;;;;;;;21.90;46.20;;;;;;5129266;28;19967;-78
2022/03/25 12:13:10;;;;;;;;;;;21.80;45.50;;;;;;5130895;27;19924;-78
2022/03/25 12:15:40;;;;;;;;;;;21.50;42.90;;;;;;5133322;27;19995;-78
2022/03/25 12:18:24;;;;;;;;;;;21.40;45.50;;;;;;5133172;27;19924;-78
2022/03/25 12:20:53;;;;;;;;;;;21.70;45.00;;;;;;5114517;27;19924;-78
2022/03/25 12:23:18;;;;;;;;;;;22.00;46.40;;;;;;5114690;27;20374;-78
2022/03/25 12:25:44;;;;;;;;;;;22.20;43.80;;;;;;5114894;27;19967;-78
2022/03/25 12:28:10;;;;;;;;;;;22.20;44.10;;;;;;5096911;27;19969;-78
2022/03/25 12:30:36;;;;;;;;;;;22.10;44.70;;;;;;5114877;27;20343;-78
2022/03/25 12:33:08;;;;;;;;;;;22.10;43.90;;;;;;5114644;27;20013;-78
2022/03/25 12:35:35;;;;;;;;;;;22.30;45.70;;;;;;5114656;27;19924;-78
2022/03/25 12:38:04;;;;;;;;;;;22.50;45.00;;;;;;5115026;27;20389;-77
2022/03/25 12:40:34;;;;;;;;;;;22.70;42.10;;;;;;5114746;27;19923;-78
2022/03/25 12:43:01;;;;;;;;;;;22.90;41.80;;;;;;5115560;27;20346;-78
2022/03/25 12:45:37;;;;;;;;;;;23.20;41.20;;;;;;5115291;27;19958;-78
2022/03/25 12:48:09;;;;;;;;;;;23.40;38.60;;;;;;5118201;27;19923;-78
2022/03/25 12:50:35;;;;;;;;;;;23.40;38.40;;;;;;5115514;27;20270;-78
2022/03/25 12:53:02;;;;;;;;;;;23.40;37.40;;;;;;5115635;27;19975;-78
2022/03/25 12:55:29;;;;;;;;;;;23.40;37.30;;;;;;5115163;27;20428;-78
2022/03/25 12:58:04;;;;;;;;;;;23.50;37.00;;;;;;5114614;27;19939;-77
2022/03/25 13:00:34;;;;;;;;;;;23.50;38.00;;;;;;5133452;27;19930;-77